sensor_id;sensor_type;location;lat;lon;timestamp;P1;durP1;ratioP1;P2;durP2;ratioP2
52564;SDS011;38460;53.106;7.004;2023-03-23T00:00:46;13.85;;;9.30;;
52564;SDS011;38460;53.106;7.004;2023-03-23T00:03:12;13.35;;;9.57;;
52564;SDS011;38460;53.106;7.004;2023-03-23T00:05:38;16.25;;;11.02;;
52564;SDS011;38460;53.106;7.004;2023-03-23T00:08:06;11.40;;;9.55;;
52564;SDS011;38460;53.106;7.004;2023-03-23T00:10:37;12.48;;;10.15;;
52564;SDS011;38460;53.106;7.004;2023-03-23T00:13:04;13.30;;;10.23;;
52564;SDS011;38460;53.106;7.004;2023-03-23T00:15:29;12.98;;;9.27;;
52564;SDS011;38460;53.106;7.004;2023-03-23T00:18:00;12.27;;;9.18;;
52564;SDS011;38460;53.106;7.004;2023-03-23T00:20:30;14.23;;;9.45;;
52564;SDS011;38460;53.106;7.004;2023-03-23T00:23:04;11.70;;;8.80;;
52564;SDS011;38460;53.106;7.004;2023-03-23T00:25:31;11.82;;;9.15;;
52564;SDS011;38460;53.106;7.004;2023-03-23T00:27:57;12.25;;;8.90;;
52564;SDS011;38460;53.106;7.004;2023-03-23T00:30:23;11.63;;;9.32;;
52564;SDS011;38460;53.106;7.004;2023-03-23T00:32:49;13.00;;;8.85;;
52564;SDS011;38460;53.106;7.004;2023-03-23T00:35:16;14.95;;;9.70;;
52564;SDS011;38460;53.106;7.004;2023-03-23T00:37:42;13.05;;;9.63;;
52564;SDS011;38460;53.106;7.004;2023-03-23T00:40:09;13.50;;;10.02;;
52564;SDS011;38460;53.106;7.004;2023-03-23T00:42:35;14.35;;;9.00;;
52564;SDS011;38460;53.106;7.004;2023-03-23T00:45:03;14.93;;;8.95;;
52564;SDS011;38460;53.106;7.004;2023-03-23T00:47:36;11.55;;;9.07;;
52564;SDS011;38460;53.106;7.004;2023-03-23T00:50:03;12.85;;;8.68;;
52564;SDS011;38460;53.106;7.004;2023-03-23T00:52:30;12.10;;;8.65;;
52564;SDS011;38460;53.106;7.004;2023-03-23T00:54:56;12.57;;;8.90;;
52564;SDS011;38460;53.106;7.004;2023-03-23T00:57:21;11.70;;;8.70;;
52564;SDS011;38460;53.106;7.004;2023-03-23T00:59:49;12.98;;;8.82;;
52564;SDS011;38460;53.106;7.004;2023-03-23T01:02:16;12.23;;;9.18;;
52564;SDS011;38460;53.106;7.004;2023-03-23T01:04:43;9.98;;;8.43;;
52564;SDS011;38460;53.106;7.004;2023-03-23T01:07:10;13.18;;;8.85;;
52564;SDS011;38460;53.106;7.004;2023-03-23T01:09:39;11.18;;;8.15;;
52564;SDS011;38460;53.106;7.004;2023-03-23T01:12:10;13.48;;;8.43;;
52564;SDS011;38460;53.106;7.004;2023-03-23T01:14:36;11.40;;;7.68;;
52564;SDS011;38460;53.106;7.004;2023-03-23T01:17:02;12.32;;;7.32;;
52564;SDS011;38460;53.106;7.004;2023-03-23T01:19:28;12.23;;;7.35;;
52564;SDS011;38460;53.106;7.004;2023-03-23T01:21:53;11.20;;;7.85;;
52564;SDS011;38460;53.106;7.004;2023-03-23T01:24:19;10.18;;;7.38;;
52564;SDS011;38460;53.106;7.004;2023-03-23T01:26:45;14.75;;;7.75;;
52564;SDS011;38460;53.106;7.004;2023-03-23T01:29:11;11.88;;;7.20;;
52564;SDS011;38460;53.106;7.004;2023-03-23T01:31:37;11.73;;;7.88;;
52564;SDS011;38460;53.106;7.004;2023-03-23T01:34:03;9.75;;;6.30;;
52564;SDS011;38460;53.106;7.004;2023-03-23T01:36:29;8.05;;;6.90;;
52564;SDS011;38460;53.106;7.004;2023-03-23T01:38:58;8.02;;;5.90;;
52564;SDS011;38460;53.106;7.004;2023-03-23T01:41:29;7.38;;;5.78;;
52564;SDS011;38460;53.106;7.004;2023-03-23T01:44:06;9.68;;;6.50;;
52564;SDS011;38460;53.106;7.004;2023-03-23T01:46:35;10.63;;;6.22;;
52564;SDS011;38460;53.106;7.004;2023-03-23T01:49:03;8.35;;;5.10;;
52564;SDS011;38460;53.106;7.004;2023-03-23T01:54:02;8.27;;;5.30;;
52564;SDS011;38460;53.106;7.004;2023-03-23T01:56:31;9.20;;;5.28;;
52564;SDS011;38460;53.106;7.004;2023-03-23T01:59:12;6.68;;;4.78;;
52564;SDS011;38460;53.106;7.004;2023-03-23T02:01:40;8.27;;;4.82;;
52564;SDS011;38460;53.106;7.004;2023-03-23T02:04:10;7.88;;;4.90;;
52564;SDS011;38460;53.106;7.004;2023-03-23T02:06:38;8.70;;;4.45;;
52564;SDS011;38460;53.106;7.004;2023-03-23T02:09:04;6.97;;;4.38;;
52564;SDS011;38460;53.106;7.004;2023-03-23T02:11:32;6.43;;;4.25;;
52564;SDS011;38460;53.106;7.004;2023-03-23T02:13:58;7.60;;;4.05;;
52564;SDS011;38460;53.106;7.004;2023-03-23T02:35:37;7.13;;;4.18;;
52564;SDS011;38460;53.106;7.004;2023-03-23T02:38:12;9.32;;;4.07;;
52564;SDS011;38460;53.106;7.004;2023-03-23T02:40:45;4.65;;;3.03;;
52564;SDS011;38460;53.106;7.004;2023-03-23T02:43:15;6.45;;;4.13;;
52564;SDS011;38460;53.106;7.004;2023-03-23T02:45:45;7.22;;;4.50;;
52564;SDS011;38460;53.106;7.004;2023-03-23T02:48:12;8.43;;;4.28;;
52564;SDS011;38460;53.106;7.004;2023-03-23T02:50:42;7.68;;;3.97;;
52564;SDS011;38460;53.106;7.004;2023-03-23T02:53:11;8.68;;;5.00;;
52564;SDS011;38460;53.106;7.004;2023-03-23T02:55:41;6.28;;;4.03;;
52564;SDS011;38460;53.106;7.004;2023-03-23T02:58:09;6.57;;;4.22;;
52564;SDS011;38460;53.106;7.004;2023-03-23T03:00:37;8.32;;;4.38;;
52564;SDS011;38460;53.106;7.004;2023-03-23T03:03:03;8.25;;;3.85;;
52564;SDS011;38460;53.106;7.004;2023-03-23T03:11:14;7.35;;;3.47;;
52564;SDS011;38460;53.106;7.004;2023-03-23T03:13:47;5.80;;;3.50;;
52564;SDS011;38460;53.106;7.004;2023-03-23T03:19:08;7.28;;;3.85;;
52564;SDS011;38460;53.106;7.004;2023-03-23T03:21:50;5.28;;;3.20;;
52564;SDS011;38460;53.106;7.004;2023-03-23T03:24:19;5.28;;;3.00;;
52564;SDS011;38460;53.106;7.004;2023-03-23T03:26:48;6.65;;;3.90;;
52564;SDS011;38460;53.106;7.004;2023-03-23T03:29:21;7.30;;;3.30;;
52564;SDS011;38460;53.106;7.004;2023-03-23T03:31:50;7.47;;;3.63;;
52564;SDS011;38460;53.106;7.004;2023-03-23T03:34:20;4.78;;;2.92;;
52564;SDS011;38460;53.106;7.004;2023-03-23T03:36:49;6.57;;;3.25;;
52564;SDS011;38460;53.106;7.004;2023-03-23T03:39:17;6.10;;;3.80;;
52564;SDS011;38460;53.106;7.004;2023-03-23T03:41:45;7.20;;;3.38;;
52564;SDS011;38460;53.106;7.004;2023-03-23T03:44:11;7.15;;;4.13;;
52564;SDS011;38460;53.106;7.004;2023-03-23T03:46:37;6.45;;;3.72;;
52564;SDS011;38460;53.106;7.004;2023-03-23T03:49:05;5.07;;;3.53;;
52564;SDS011;38460;53.106;7.004;2023-03-23T03:51:33;4.38;;;3.40;;
52564;SDS011;38460;53.106;7.004;2023-03-23T03:53:59;6.57;;;4.32;;
52564;SDS011;38460;53.106;7.004;2023-03-23T03:56:25;6.55;;;4.05;;
52564;SDS011;38460;53.106;7.004;2023-03-23T03:58:51;5.65;;;3.75;;
52564;SDS011;38460;53.106;7.004;2023-03-23T04:01:19;7.40;;;4.10;;
52564;SDS011;38460;53.106;7.004;2023-03-23T04:03:47;5.47;;;4.05;;
52564;SDS011;38460;53.106;7.004;2023-03-23T04:06:14;8.00;;;3.70;;
52564;SDS011;38460;53.106;7.004;2023-03-23T04:08:40;8.85;;;4.65;;
52564;SDS011;38460;53.106;7.004;2023-03-23T04:11:07;5.05;;;3.53;;
52564;SDS011;38460;53.106;7.004;2023-03-23T04:13:33;6.57;;;3.60;;
52564;SDS011;38460;53.106;7.004;2023-03-23T04:15:59;6.15;;;4.15;;
52564;SDS011;38460;53.106;7.004;2023-03-23T04:18:25;5.80;;;3.78;;
52564;SDS011;38460;53.106;7.004;2023-03-23T04:20:51;6.97;;;3.88;;
52564;SDS011;38460;53.106;7.004;2023-03-23T04:23:18;5.65;;;4.13;;
52564;SDS011;38460;53.106;7.004;2023-03-23T04:25:47;6.93;;;4.50;;
52564;SDS011;38460;53.106;7.004;2023-03-23T04:28:14;7.68;;;4.22;;
52564;SDS011;38460;53.106;7.004;2023-03-23T04:30:42;6.88;;;5.15;;
52564;SDS011;38460;53.106;7.004;2023-03-23T04:33:08;7.13;;;4.80;;
52564;SDS011;38460;53.106;7.004;2023-03-23T04:35:42;7.03;;;4.90;;
52564;SDS011;38460;53.106;7.004;2023-03-23T04:38:11;5.95;;;4.18;;
52564;SDS011;38460;53.106;7.004;2023-03-23T04:40:40;7.28;;;4.05;;
52564;SDS011;38460;53.106;7.004;2023-03-23T04:43:08;8.77;;;4.93;;
52564;SDS011;38460;53.106;7.004;2023-03-23T04:45:34;6.95;;;4.55;;
52564;SDS011;38460;53.106;7.004;2023-03-23T04:48:02;6.15;;;4.50;;
52564;SDS011;38460;53.106;7.004;2023-03-23T04:50:31;6.55;;;4.22;;
52564;SDS011;38460;53.106;7.004;2023-03-23T04:53:01;7.90;;;4.43;;
52564;SDS011;38460;53.106;7.004;2023-03-23T04:55:31;5.82;;;4.35;;
52564;SDS011;38460;53.106;7.004;2023-03-23T04:58:04;7.88;;;4.70;;
52564;SDS011;38460;53.106;7.004;2023-03-23T05:00:32;7.15;;;4.80;;
52564;SDS011;38460;53.106;7.004;2023-03-23T05:02:59;8.57;;;5.10;;
52564;SDS011;38460;53.106;7.004;2023-03-23T05:05:26;9.45;;;5.80;;
52564;SDS011;38460;53.106;7.004;2023-03-23T05:07:54;3.78;;;1.85;;
52564;SDS011;38460;53.106;7.004;2023-03-23T05:10:20;3.63;;;1.08;;
52564;SDS011;38460;53.106;7.004;2023-03-23T05:12:46;4.13;;;1.33;;
52564;SDS011;38460;53.106;7.004;2023-03-23T05:15:12;5.47;;;1.92;;
52564;SDS011;38460;53.106;7.004;2023-03-23T05:17:39;4.13;;;1.40;;
52564;SDS011;38460;53.106;7.004;2023-03-23T05:20:09;6.75;;;1.60;;
52564;SDS011;38460;53.106;7.004;2023-03-23T05:22:37;7.25;;;1.77;;
52564;SDS011;38460;53.106;7.004;2023-03-23T05:25:03;2.72;;;1.15;;
52564;SDS011;38460;53.106;7.004;2023-03-23T05:27:34;3.00;;;1.10;;
52564;SDS011;38460;53.106;7.004;2023-03-23T05:30:00;3.80;;;1.50;;
52564;SDS011;38460;53.106;7.004;2023-03-23T05:32:26;3.90;;;1.70;;
52564;SDS011;38460;53.106;7.004;2023-03-23T05:34:56;4.15;;;1.60;;
52564;SDS011;38460;53.106;7.004;2023-03-23T05:37:26;2.90;;;1.35;;
52564;SDS011;38460;53.106;7.004;2023-03-23T05:39:59;7.10;;;2.65;;
52564;SDS011;38460;53.106;7.004;2023-03-23T05:42:30;6.83;;;1.77;;
52564;SDS011;38460;53.106;7.004;2023-03-23T05:44:56;5.97;;;1.75;;
52564;SDS011;38460;53.106;7.004;2023-03-23T05:47:23;5.50;;;2.08;;
52564;SDS011;38460;53.106;7.004;2023-03-23T05:49:50;6.00;;;2.58;;
52564;SDS011;38460;53.106;7.004;2023-03-23T05:52:17;6.88;;;2.50;;
52564;SDS011;38460;53.106;7.004;2023-03-23T05:54:43;7.22;;;2.25;;
52564;SDS011;38460;53.106;7.004;2023-03-23T05:57:10;7.20;;;2.67;;
52564;SDS011;38460;53.106;7.004;2023-03-23T05:59:36;6.75;;;2.72;;
52564;SDS011;38460;53.106;7.004;2023-03-23T06:02:02;9.43;;;2.58;;
52564;SDS011;38460;53.106;7.004;2023-03-23T06:04:28;10.20;;;3.03;;
52564;SDS011;38460;53.106;7.004;2023-03-23T06:06:54;7.35;;;2.67;;
52564;SDS011;38460;53.106;7.004;2023-03-23T06:09:21;12.70;;;2.50;;
52564;SDS011;38460;53.106;7.004;2023-03-23T06:11:48;10.65;;;2.35;;
52564;SDS011;38460;53.106;7.004;2023-03-23T06:14:14;5.72;;;2.35;;
52564;SDS011;38460;53.106;7.004;2023-03-23T06:16:41;7.18;;;2.80;;
52564;SDS011;38460;53.106;7.004;2023-03-23T06:19:07;5.60;;;2.20;;
52564;SDS011;38460;53.106;7.004;2023-03-23T06:21:33;6.68;;;2.92;;
52564;SDS011;38460;53.106;7.004;2023-03-23T06:23:59;8.90;;;2.85;;
52564;SDS011;38460;53.106;7.004;2023-03-23T06:26:27;7.43;;;2.95;;
52564;SDS011;38460;53.106;7.004;2023-03-23T06:28:56;8.50;;;2.95;;
52564;SDS011;38460;53.106;7.004;2023-03-23T06:31:22;9.63;;;2.85;;
52564;SDS011;38460;53.106;7.004;2023-03-23T06:33:50;8.63;;;3.33;;
52564;SDS011;38460;53.106;7.004;2023-03-23T06:36:16;7.07;;;2.90;;
52564;SDS011;38460;53.106;7.004;2023-03-23T06:38:42;7.68;;;2.85;;
52564;SDS011;38460;53.106;7.004;2023-03-23T06:41:08;11.50;;;3.10;;
52564;SDS011;38460;53.106;7.004;2023-03-23T06:43:34;7.35;;;2.83;;
52564;SDS011;38460;53.106;7.004;2023-03-23T06:46:03;7.82;;;3.53;;
52564;SDS011;38460;53.106;7.004;2023-03-23T06:48:28;7.78;;;3.10;;
52564;SDS011;38460;53.106;7.004;2023-03-23T06:50:54;10.70;;;3.80;;
52564;SDS011;38460;53.106;7.004;2023-03-23T06:53:20;11.20;;;3.50;;
52564;SDS011;38460;53.106;7.004;2023-03-23T06:55:46;9.63;;;3.45;;
52564;SDS011;38460;53.106;7.004;2023-03-23T06:58:12;6.25;;;2.88;;
52564;SDS011;38460;53.106;7.004;2023-03-23T07:00:38;11.25;;;3.88;;
52564;SDS011;38460;53.106;7.004;2023-03-23T07:03:05;9.50;;;3.33;;
52564;SDS011;38460;53.106;7.004;2023-03-23T07:05:32;7.68;;;2.90;;
52564;SDS011;38460;53.106;7.004;2023-03-23T07:08:00;11.70;;;3.30;;
52564;SDS011;38460;53.106;7.004;2023-03-23T07:10:27;13.73;;;3.92;;
52564;SDS011;38460;53.106;7.004;2023-03-23T07:12:53;11.80;;;3.60;;
52564;SDS011;38460;53.106;7.004;2023-03-23T07:15:19;10.63;;;3.25;;
52564;SDS011;38460;53.106;7.004;2023-03-23T07:17:45;17.45;;;4.55;;
52564;SDS011;38460;53.106;7.004;2023-03-23T07:20:12;9.52;;;2.90;;
52564;SDS011;38460;53.106;7.004;2023-03-23T07:22:38;14.27;;;3.40;;
52564;SDS011;38460;53.106;7.004;2023-03-23T07:25:04;12.18;;;4.13;;
52564;SDS011;38460;53.106;7.004;2023-03-23T07:27:30;12.40;;;3.42;;
52564;SDS011;38460;53.106;7.004;2023-03-23T07:29:56;15.23;;;3.97;;
52564;SDS011;38460;53.106;7.004;2023-03-23T07:32:23;11.13;;;3.80;;
52564;SDS011;38460;53.106;7.004;2023-03-23T07:34:49;13.50;;;3.95;;
52564;SDS011;38460;53.106;7.004;2023-03-23T07:37:15;11.98;;;3.60;;
52564;SDS011;38460;53.106;7.004;2023-03-23T07:39:42;9.93;;;3.22;;
52564;SDS011;38460;53.106;7.004;2023-03-23T07:42:08;12.90;;;3.75;;
52564;SDS011;38460;53.106;7.004;2023-03-23T07:44:33;9.60;;;4.22;;
52564;SDS011;38460;53.106;7.004;2023-03-23T07:46:59;15.10;;;3.80;;
52564;SDS011;38460;53.106;7.004;2023-03-23T07:49:25;14.82;;;3.90;;
52564;SDS011;38460;53.106;7.004;2023-03-23T07:51:51;10.48;;;3.97;;
52564;SDS011;38460;53.106;7.004;2023-03-23T07:54:17;15.77;;;4.78;;
52564;SDS011;38460;53.106;7.004;2023-03-23T07:56:43;16.30;;;4.03;;
52564;SDS011;38460;53.106;7.004;2023-03-23T07:59:10;14.50;;;4.07;;
52564;SDS011;38460;53.106;7.004;2023-03-23T08:01:37;13.52;;;4.13;;
52564;SDS011;38460;53.106;7.004;2023-03-23T08:04:04;12.43;;;3.80;;
52564;SDS011;38460;53.106;7.004;2023-03-23T08:06:32;15.63;;;4.60;;
52564;SDS011;38460;53.106;7.004;2023-03-23T08:08:59;14.60;;;5.55;;
52564;SDS011;38460;53.106;7.004;2023-03-23T08:11:25;12.23;;;3.58;;
52564;SDS011;38460;53.106;7.004;2023-03-23T08:13:51;19.73;;;5.20;;
52564;SDS011;38460;53.106;7.004;2023-03-23T08:16:18;16.58;;;5.35;;
52564;SDS011;38460;53.106;7.004;2023-03-23T08:18:45;13.55;;;3.83;;
52564;SDS011;38460;53.106;7.004;2023-03-23T08:21:11;11.00;;;3.58;;
52564;SDS011;38460;53.106;7.004;2023-03-23T08:23:38;18.38;;;4.03;;
52564;SDS011;38460;53.106;7.004;2023-03-23T08:26:04;16.30;;;4.00;;
52564;SDS011;38460;53.106;7.004;2023-03-23T08:28:35;10.48;;;3.58;;
52564;SDS011;38460;53.106;7.004;2023-03-23T08:31:06;14.43;;;3.97;;
52564;SDS011;38460;53.106;7.004;2023-03-23T08:33:33;12.65;;;4.00;;
52564;SDS011;38460;53.106;7.004;2023-03-23T08:35:59;17.42;;;5.00;;
52564;SDS011;38460;53.106;7.004;2023-03-23T08:38:26;13.43;;;4.05;;
52564;SDS011;38460;53.106;7.004;2023-03-23T08:40:57;21.35;;;5.03;;
52564;SDS011;38460;53.106;7.004;2023-03-23T08:43:24;14.07;;;4.20;;
52564;SDS011;38460;53.106;7.004;2023-03-23T08:45:50;12.82;;;4.13;;
52564;SDS011;38460;53.106;7.004;2023-03-23T08:48:16;13.77;;;4.25;;
52564;SDS011;38460;53.106;7.004;2023-03-23T08:50:43;19.38;;;4.97;;
52564;SDS011;38460;53.106;7.004;2023-03-23T08:53:09;11.10;;;3.92;;
52564;SDS011;38460;53.106;7.004;2023-03-23T08:55:34;17.33;;;4.30;;
52564;SDS011;38460;53.106;7.004;2023-03-23T08:58:00;20.08;;;4.85;;
52564;SDS011;38460;53.106;7.004;2023-03-23T09:00:28;20.45;;;5.80;;
52564;SDS011;38460;53.106;7.004;2023-03-23T09:02:54;14.25;;;5.10;;
52564;SDS011;38460;53.106;7.004;2023-03-23T09:05:22;15.15;;;4.60;;
52564;SDS011;38460;53.106;7.004;2023-03-23T09:07:51;15.25;;;4.57;;
52564;SDS011;38460;53.106;7.004;2023-03-23T09:10:18;16.77;;;4.10;;
52564;SDS011;38460;53.106;7.004;2023-03-23T09:12:45;13.80;;;4.15;;
52564;SDS011;38460;53.106;7.004;2023-03-23T09:15:12;20.05;;;4.55;;
52564;SDS011;38460;53.106;7.004;2023-03-23T09:17:43;17.42;;;4.30;;
52564;SDS011;38460;53.106;7.004;2023-03-23T09:20:11;17.95;;;4.93;;
52564;SDS011;38460;53.106;7.004;2023-03-23T09:22:39;15.52;;;4.88;;
52564;SDS011;38460;53.106;7.004;2023-03-23T09:25:08;18.35;;;4.97;;
52564;SDS011;38460;53.106;7.004;2023-03-23T09:27:35;15.68;;;5.07;;
52564;SDS011;38460;53.106;7.004;2023-03-23T09:30:05;14.20;;;4.38;;
52564;SDS011;38460;53.106;7.004;2023-03-23T09:32:33;13.13;;;4.82;;
52564;SDS011;38460;53.106;7.004;2023-03-23T09:35:02;21.70;;;4.88;;
52564;SDS011;38460;53.106;7.004;2023-03-23T09:37:32;16.85;;;4.20;;
52564;SDS011;38460;53.106;7.004;2023-03-23T09:40:00;19.23;;;4.93;;
52564;SDS011;38460;53.106;7.004;2023-03-23T09:45:12;21.50;;;5.15;;
52564;SDS011;38460;53.106;7.004;2023-03-23T09:48:12;14.50;;;4.22;;
52564;SDS011;38460;53.106;7.004;2023-03-23T09:51:00;15.77;;;4.55;;
52564;SDS011;38460;53.106;7.004;2023-03-23T09:53:36;15.35;;;4.63;;
52564;SDS011;38460;53.106;7.004;2023-03-23T09:56:09;12.55;;;4.00;;
52564;SDS011;38460;53.106;7.004;2023-03-23T09:58:50;15.23;;;4.30;;
52564;SDS011;38460;53.106;7.004;2023-03-23T10:01:40;14.50;;;4.85;;
52564;SDS011;38460;53.106;7.004;2023-03-23T10:04:33;15.00;;;4.28;;
52564;SDS011;38460;53.106;7.004;2023-03-23T10:07:17;19.70;;;5.07;;
52564;SDS011;38460;53.106;7.004;2023-03-23T10:09:45;15.88;;;4.72;;
52564;SDS011;38460;53.106;7.004;2023-03-23T10:12:23;11.38;;;4.22;;
52564;SDS011;38460;53.106;7.004;2023-03-23T10:22:42;12.68;;;4.18;;
52564;SDS011;38460;53.106;7.004;2023-03-23T10:25:16;8.63;;;3.22;;
52564;SDS011;38460;53.106;7.004;2023-03-23T10:27:50;7.82;;;3.13;;
52564;SDS011;38460;53.106;7.004;2023-03-23T10:30:46;13.15;;;3.25;;
52564;SDS011;38460;53.106;7.004;2023-03-23T10:33:18;15.20;;;3.90;;
52564;SDS011;38460;53.106;7.004;2023-03-23T10:36:04;13.10;;;3.35;;
52564;SDS011;38460;53.106;7.004;2023-03-23T10:38:57;13.63;;;3.72;;
52564;SDS011;38460;53.106;7.004;2023-03-23T10:41:26;10.77;;;4.00;;
52564;SDS011;38460;53.106;7.004;2023-03-23T10:43:52;13.98;;;3.92;;
52564;SDS011;38460;53.106;7.004;2023-03-23T10:49:25;12.35;;;4.07;;
52564;SDS011;38460;53.106;7.004;2023-03-23T10:54:38;11.05;;;3.83;;
52564;SDS011;38460;53.106;7.004;2023-03-23T10:57:12;11.50;;;3.42;;
52564;SDS011;38460;53.106;7.004;2023-03-23T10:59:46;14.57;;;2.75;;
52564;SDS011;38460;53.106;7.004;2023-03-23T11:02:19;7.45;;;2.42;;
52564;SDS011;38460;53.106;7.004;2023-03-23T11:05:01;11.13;;;3.22;;
52564;SDS011;38460;53.106;7.004;2023-03-23T11:07:31;10.13;;;3.65;;
52564;SDS011;38460;53.106;7.004;2023-03-23T11:10:34;11.10;;;3.25;;
52564;SDS011;38460;53.106;7.004;2023-03-23T11:12:56;8.52;;;3.90;;
52564;SDS011;38460;53.106;7.004;2023-03-23T11:15:30;10.88;;;3.75;;
52564;SDS011;38460;53.106;7.004;2023-03-23T11:18:19;12.57;;;2.95;;
52564;SDS011;38460;53.106;7.004;2023-03-23T11:20:55;8.98;;;2.65;;
52564;SDS011;38460;53.106;7.004;2023-03-23T11:28:42;5.88;;;2.58;;
52564;SDS011;38460;53.106;7.004;2023-03-23T11:31:33;8.93;;;2.80;;
52564;SDS011;38460;53.106;7.004;2023-03-23T11:34:05;8.68;;;2.92;;
52564;SDS011;38460;53.106;7.004;2023-03-23T11:36:41;8.68;;;2.80;;
52564;SDS011;38460;53.106;7.004;2023-03-23T11:39:20;8.43;;;2.38;;
52564;SDS011;38460;53.106;7.004;2023-03-23T11:41:48;7.32;;;2.60;;
52564;SDS011;38460;53.106;7.004;2023-03-23T11:44:14;8.45;;;2.38;;
52564;SDS011;38460;53.106;7.004;2023-03-23T11:54:59;7.63;;;2.85;;
52564;SDS011;38460;53.106;7.004;2023-03-23T11:57:39;6.38;;;2.22;;
52564;SDS011;38460;53.106;7.004;2023-03-23T12:00:13;8.73;;;2.63;;
52564;SDS011;38460;53.106;7.004;2023-03-23T12:11:10;9.75;;;2.70;;
52564;SDS011;38460;53.106;7.004;2023-03-23T12:27:33;5.05;;;2.05;;
52564;SDS011;38460;53.106;7.004;2023-03-23T12:30:59;6.70;;;2.63;;
52564;SDS011;38460;53.106;7.004;2023-03-23T12:36:30;8.13;;;2.65;;
52564;SDS011;38460;53.106;7.004;2023-03-23T12:48:03;11.38;;;2.92;;
52564;SDS011;38460;53.106;7.004;2023-03-23T12:55:45;6.53;;;2.00;;
52564;SDS011;38460;53.106;7.004;2023-03-23T12:58:19;8.07;;;2.33;;
52564;SDS011;38460;53.106;7.004;2023-03-23T13:01:05;7.25;;;2.63;;
52564;SDS011;38460;53.106;7.004;2023-03-23T13:11:47;7.90;;;2.83;;
52564;SDS011;38460;53.106;7.004;2023-03-23T13:14:35;11.55;;;2.80;;
52564;SDS011;38460;53.106;7.004;2023-03-23T13:22:52;7.47;;;2.50;;
52564;SDS011;38460;53.106;7.004;2023-03-23T13:26:17;5.05;;;2.47;;
52564;SDS011;38460;53.106;7.004;2023-03-23T13:31:23;8.55;;;2.22;;
52564;SDS011;38460;53.106;7.004;2023-03-23T13:36:56;11.20;;;2.92;;
52564;SDS011;38460;53.106;7.004;2023-03-23T13:42:03;7.13;;;2.58;;
52564;SDS011;38460;53.106;7.004;2023-03-23T13:47:34;6.82;;;2.20;;
52564;SDS011;38460;53.106;7.004;2023-03-23T13:50:08;8.98;;;2.35;;
52564;SDS011;38460;53.106;7.004;2023-03-23T13:57:56;8.68;;;2.42;;
52564;SDS011;38460;53.106;7.004;2023-03-23T14:10:56;7.53;;;2.40;;
52564;SDS011;38460;53.106;7.004;2023-03-23T14:14:02;11.23;;;2.65;;
52564;SDS011;38460;53.106;7.004;2023-03-23T14:16:22;6.57;;;2.83;;
52564;SDS011;38460;53.106;7.004;2023-03-23T14:18:58;10.10;;;2.55;;
52564;SDS011;38460;53.106;7.004;2023-03-23T14:29:35;6.75;;;1.98;;
52564;SDS011;38460;53.106;7.004;2023-03-23T14:32:00;12.60;;;2.40;;
52564;SDS011;38460;53.106;7.004;2023-03-23T14:34:28;8.15;;;2.63;;
52564;SDS011;38460;53.106;7.004;2023-03-23T14:36:57;10.20;;;2.78;;
52564;SDS011;38460;53.106;7.004;2023-03-23T14:39:28;8.73;;;2.95;;
52564;SDS011;38460;53.106;7.004;2023-03-23T14:41:57;9.32;;;2.10;;
52564;SDS011;38460;53.106;7.004;2023-03-23T14:44:32;9.52;;;1.92;;
52564;SDS011;38460;53.106;7.004;2023-03-23T14:47:04;7.55;;;2.58;;
52564;SDS011;38460;53.106;7.004;2023-03-23T14:49:39;7.50;;;2.40;;
52564;SDS011;38460;53.106;7.004;2023-03-23T14:52:11;7.93;;;2.35;;
52564;SDS011;38460;53.106;7.004;2023-03-23T14:54:38;11.20;;;2.60;;
52564;SDS011;38460;53.106;7.004;2023-03-23T14:57:14;5.82;;;2.20;;
52564;SDS011;38460;53.106;7.004;2023-03-23T14:59:42;8.45;;;2.50;;
52564;SDS011;38460;53.106;7.004;2023-03-23T15:04:51;11.35;;;3.65;;
52564;SDS011;38460;53.106;7.004;2023-03-23T15:07:23;10.68;;;3.25;;
52564;SDS011;38460;53.106;7.004;2023-03-23T15:09:55;11.45;;;3.00;;
52564;SDS011;38460;53.106;7.004;2023-03-23T15:12:23;13.55;;;3.28;;
52564;SDS011;38460;53.106;7.004;2023-03-23T15:14:56;10.57;;;3.42;;
52564;SDS011;38460;53.106;7.004;2023-03-23T15:17:24;11.18;;;2.63;;
52564;SDS011;38460;53.106;7.004;2023-03-23T15:19:52;9.57;;;3.35;;
52564;SDS011;38460;53.106;7.004;2023-03-23T15:25:28;19.67;;;5.90;;
52564;SDS011;38460;53.106;7.004;2023-03-23T15:27:57;9.52;;;2.90;;
52564;SDS011;38460;53.106;7.004;2023-03-23T15:30:33;12.77;;;3.22;;
52564;SDS011;38460;53.106;7.004;2023-03-23T15:33:08;7.93;;;2.55;;
52564;SDS011;38460;53.106;7.004;2023-03-23T15:35:36;8.15;;;2.70;;
52564;SDS011;38460;53.106;7.004;2023-03-23T15:38:12;7.78;;;2.85;;
52564;SDS011;38460;53.106;7.004;2023-03-23T15:40:48;9.40;;;2.83;;
52564;SDS011;38460;53.106;7.004;2023-03-23T15:46:03;11.80;;;2.92;;
52564;SDS011;38460;53.106;7.004;2023-03-23T15:48:51;8.18;;;2.47;;
52564;SDS011;38460;53.106;7.004;2023-03-23T15:51:20;6.70;;;2.15;;
52564;SDS011;38460;53.106;7.004;2023-03-23T15:53:49;6.88;;;2.88;;
52564;SDS011;38460;53.106;7.004;2023-03-23T15:56:16;9.80;;;2.70;;
52564;SDS011;38460;53.106;7.004;2023-03-23T15:58:42;10.23;;;2.65;;
52564;SDS011;38460;53.106;7.004;2023-03-23T16:01:11;8.98;;;2.67;;
52564;SDS011;38460;53.106;7.004;2023-03-23T16:03:42;9.02;;;2.22;;
52564;SDS011;38460;53.106;7.004;2023-03-23T16:06:30;6.13;;;2.30;;
52564;SDS011;38460;53.106;7.004;2023-03-23T16:08:58;7.82;;;2.40;;
52564;SDS011;38460;53.106;7.004;2023-03-23T16:11:25;5.50;;;2.50;;
52564;SDS011;38460;53.106;7.004;2023-03-23T16:13:52;8.75;;;2.65;;
52564;SDS011;38460;53.106;7.004;2023-03-23T16:16:31;7.80;;;2.20;;
52564;SDS011;38460;53.106;7.004;2023-03-23T16:18:59;6.85;;;2.22;;
52564;SDS011;38460;53.106;7.004;2023-03-23T16:21:25;6.75;;;2.53;;
52564;SDS011;38460;53.106;7.004;2023-03-23T16:23:51;8.98;;;2.47;;
52564;SDS011;38460;53.106;7.004;2023-03-23T16:26:16;7.55;;;2.20;;
52564;SDS011;38460;53.106;7.004;2023-03-23T16:28:42;9.90;;;3.33;;
52564;SDS011;38460;53.106;7.004;2023-03-23T16:31:08;8.80;;;2.60;;
52564;SDS011;38460;53.106;7.004;2023-03-23T16:33:34;14.80;;;4.22;;
52564;SDS011;38460;53.106;7.004;2023-03-23T16:36:00;6.55;;;2.30;;
52564;SDS011;38460;53.106;7.004;2023-03-23T16:38:26;11.73;;;2.50;;
52564;SDS011;38460;53.106;7.004;2023-03-23T16:40:52;7.78;;;2.13;;
52564;SDS011;38460;53.106;7.004;2023-03-23T16:43:18;8.50;;;2.65;;
52564;SDS011;38460;53.106;7.004;2023-03-23T16:45:45;9.35;;;2.50;;
52564;SDS011;38460;53.106;7.004;2023-03-23T16:48:12;8.32;;;2.45;;
52564;SDS011;38460;53.106;7.004;2023-03-23T16:50:39;7.82;;;2.83;;
52564;SDS011;38460;53.106;7.004;2023-03-23T16:53:05;8.63;;;2.22;;
52564;SDS011;38460;53.106;7.004;2023-03-23T16:55:32;11.90;;;2.75;;
52564;SDS011;38460;53.106;7.004;2023-03-23T16:57:59;9.88;;;2.55;;
52564;SDS011;38460;53.106;7.004;2023-03-23T17:00:25;6.28;;;2.33;;
52564;SDS011;38460;53.106;7.004;2023-03-23T17:02:52;7.97;;;2.42;;
52564;SDS011;38460;53.106;7.004;2023-03-23T17:05:21;9.07;;;2.40;;
52564;SDS011;38460;53.106;7.004;2023-03-23T17:07:48;9.40;;;3.20;;
52564;SDS011;38460;53.106;7.004;2023-03-23T17:10:15;7.85;;;2.95;;
52564;SDS011;38460;53.106;7.004;2023-03-23T17:12:41;8.43;;;2.55;;
52564;SDS011;38460;53.106;7.004;2023-03-23T17:15:09;10.50;;;2.90;;
52564;SDS011;38460;53.106;7.004;2023-03-23T17:17:36;8.68;;;2.33;;
52564;SDS011;38460;53.106;7.004;2023-03-23T17:20:02;10.88;;;2.95;;
52564;SDS011;38460;53.106;7.004;2023-03-23T17:22:29;7.22;;;2.42;;
52564;SDS011;38460;53.106;7.004;2023-03-23T17:24:55;7.32;;;1.92;;
52564;SDS011;38460;53.106;7.004;2023-03-23T17:27:22;11.15;;;2.72;;
52564;SDS011;38460;53.106;7.004;2023-03-23T17:29:49;7.45;;;2.38;;
52564;SDS011;38460;53.106;7.004;2023-03-23T17:32:15;12.35;;;3.15;;